createdAt,value
2023-02-27T00:01:53.784Z,8.00
2023-02-27T00:04:20.392Z,12.50
2023-02-27T00:06:46.921Z,26.40
2023-02-27T00:09:13.467Z,7.00
2023-02-27T00:11:40.249Z,14.90
2023-02-27T00:14:06.811Z,12.00
2023-02-27T00:16:34.205Z,1.00
2023-02-27T00:19:04.459Z,13.60
2023-02-27T00:21:31.791Z,5.60
2023-02-27T00:23:58.402Z,6.10
2023-02-27T00:26:25.112Z,14.50
2023-02-27T00:28:52.087Z,15.20
2023-02-27T00:31:18.678Z,2.90
2023-02-27T00:33:45.279Z,7.70
2023-02-27T00:36:11.796Z,12.30
2023-02-27T00:38:38.335Z,10.30
2023-02-27T00:41:05.009Z,19.70
2023-02-27T00:43:31.578Z,14.30
2023-02-27T00:45:58.212Z,8.60
2023-02-27T00:48:24.786Z,1.00
2023-02-27T00:50:51.321Z,4.10
2023-02-27T00:53:17.940Z,1.00
2023-02-27T00:55:44.465Z,7.80
2023-02-27T00:58:11.055Z,6.80
2023-02-27T01:00:37.710Z,12.30
2023-02-27T01:03:04.538Z,4.30
2023-02-27T01:05:31.180Z,12.70
2023-02-27T01:07:57.743Z,11.00
2023-02-27T01:10:24.524Z,11.30
2023-02-27T01:12:51.151Z,1.40
2023-02-27T01:15:17.744Z,1.00
2023-02-27T01:17:44.341Z,8.00
2023-02-27T01:20:11.878Z,6.60
2023-02-27T01:22:38.481Z,7.50
2023-02-27T01:25:05.281Z,9.30
2023-02-27T01:27:32.167Z,4.00
2023-02-27T01:29:58.706Z,8.10
2023-02-27T01:32:25.481Z,6.50
2023-02-27T01:34:52.134Z,1.00
2023-02-27T01:37:18.837Z,1.40
2023-02-27T01:39:45.400Z,20.80
2023-02-27T01:42:25.809Z,1.00
2023-02-27T01:45:05.973Z,1.00
2023-02-27T01:47:32.621Z,4.70
2023-02-27T01:49:59.315Z,4.40
2023-02-27T01:52:26.837Z,6.80
2023-02-27T01:54:53.511Z,12.60
2023-02-27T01:57:20.108Z,4.40
2023-02-27T01:59:46.667Z,15.00
2023-02-27T02:02:16.804Z,3.90
2023-02-27T02:04:43.734Z,2.70
2023-02-27T02:07:12.264Z,1.00
2023-02-27T02:09:41.927Z,1.00
2023-02-27T02:12:09.628Z,1.00
2023-02-27T02:14:36.171Z,4.80
2023-02-27T02:17:11.378Z,1.00
2023-02-27T02:19:41.025Z,1.00
2023-02-27T02:22:16.777Z,7.90
2023-02-27T02:25:05.514Z,5.30
2023-02-27T02:27:41.134Z,3.30
2023-02-27T02:30:13.921Z,50.20
2023-02-27T02:32:43.479Z,55.10
2023-02-27T02:35:28.902Z,4.40
2023-02-27T02:38:14.280Z,6.30
2023-02-27T02:40:52.212Z,10.80
2023-02-27T02:43:26.411Z,5.50
2023-02-27T02:46:10.162Z,4.40
2023-02-27T02:48:59.980Z,2.40
2023-02-27T02:51:36.768Z,1.00
2023-02-27T02:54:13.004Z,5.80
2023-02-27T02:56:44.103Z,5.20
2023-02-27T02:59:31.596Z,7.40
2023-02-27T03:02:18.787Z,7.00
2023-02-27T03:04:51.632Z,15.70
2023-02-27T03:07:24.213Z,12.30
2023-02-27T03:09:54.216Z,2.80
2023-02-27T03:12:27.022Z,9.70
2023-02-27T03:15:13.591Z,4.60
2023-02-27T03:17:43.650Z,3.80
2023-02-27T03:20:23.746Z,6.10
2023-02-27T03:22:52.514Z,2.30
2023-02-27T03:25:19.822Z,18.20
2023-02-27T03:27:50.897Z,2.00
2023-02-27T03:30:26.097Z,5.70
2023-02-27T03:32:56.340Z,1.00
2023-02-27T03:35:26.919Z,4.10
2023-02-27T03:38:00.696Z,5.10
2023-02-27T03:40:32.585Z,2.90
2023-02-27T03:43:06.060Z,2.30
2023-02-27T03:45:40.150Z,4.10
2023-02-27T03:48:07.715Z,8.80
2023-02-27T03:50:37.647Z,11.90
2023-02-27T03:53:06.458Z,1.00
2023-02-27T03:55:34.793Z,6.10
2023-02-27T03:58:03.003Z,1.00
2023-02-27T04:00:29.504Z,7.50
2023-02-27T04:02:57.408Z,7.20
2023-02-27T04:05:23.961Z,3.70
2023-02-27T04:08:03.861Z,9.60
2023-02-27T04:10:30.788Z,16.20
2023-02-27T04:13:11.102Z,6.30
2023-02-27T04:16:00.687Z,49.30
2023-02-27T04:18:30.265Z,53.10
2023-02-27T04:21:06.714Z,44.30
2023-02-27T04:23:48.959Z,8.70
2023-02-27T04:26:27.860Z,9.40
2023-02-27T04:29:13.265Z,6.30
2023-02-27T04:31:50.043Z,4.80
2023-02-27T04:34:19.681Z,4.40
2023-02-27T04:36:49.273Z,1.00
2023-02-27T04:39:21.011Z,4.90
2023-02-27T04:41:52.661Z,15.00
2023-02-27T04:44:20.331Z,7.70
2023-02-27T04:46:47.633Z,6.20
2023-02-27T04:49:25.765Z,9.70
2023-02-27T04:51:55.401Z,3.80
2023-02-27T04:54:29.269Z,18.40
2023-02-27T04:56:57.593Z,42.90
2023-02-27T04:59:29.693Z,54.50
2023-02-27T05:01:59.232Z,55.80
2023-02-27T05:04:28.146Z,51.20
2023-02-27T05:06:55.475Z,59.10
2023-02-27T05:09:37.078Z,52.50
2023-02-27T05:12:16.525Z,62.30
2023-02-27T05:14:46.208Z,74.20
2023-02-27T05:17:17.103Z,59.30
2023-02-27T05:19:44.253Z,47.10
2023-02-27T05:22:26.107Z,46.20
2023-02-27T05:24:57.488Z,11.70
2023-02-27T05:27:29.622Z,15.30
2023-02-27T05:30:25.356Z,10.70
2023-02-27T05:32:54.892Z,7.30
2023-02-27T05:35:24.621Z,11.30
2023-02-27T05:38:11.464Z,8.80
2023-02-27T05:40:41.474Z,15.30
2023-02-27T05:43:15.105Z,16.50
2023-02-27T05:45:43.420Z,11.10
2023-02-27T05:48:19.861Z,20.20
2023-02-27T05:50:48.985Z,68.90
2023-02-27T05:53:18.358Z,30.10
2023-02-27T05:55:48.696Z,20.60
2023-02-27T05:58:18.674Z,51.50
2023-02-27T06:00:51.523Z,8.70
2023-02-27T06:03:18.240Z,13.90
2023-02-27T06:05:44.990Z,10.50
2023-02-27T06:08:11.603Z,5.50
2023-02-27T06:10:38.425Z,9.40
2023-02-27T06:13:05.561Z,14.60
2023-02-27T06:15:32.082Z,19.80
2023-02-27T06:17:58.656Z,16.80
2023-02-27T06:20:25.161Z,14.50
2023-02-27T06:22:51.687Z,9.00
2023-02-27T06:25:18.364Z,8.50
2023-02-27T06:27:44.891Z,10.00
2023-02-27T06:30:11.798Z,49.50
2023-02-27T06:32:38.341Z,64.80
2023-02-27T06:35:06.292Z,49.70
2023-02-27T06:37:33.016Z,57.30
2023-02-27T06:39:59.536Z,3.90
2023-02-27T06:42:26.037Z,18.80
2023-02-27T06:44:52.632Z,16.50
2023-02-27T06:47:19.159Z,19.50
2023-02-27T06:49:45.693Z,14.40
2023-02-27T06:52:12.288Z,65.20
2023-02-27T06:54:38.797Z,71.20
2023-02-27T06:57:05.448Z,24.00
2023-02-27T06:59:32.251Z,11.40
2023-02-27T07:01:59.155Z,16.00
2023-02-27T07:04:25.740Z,27.10
2023-02-27T07:07:35.453Z,65.70
2023-02-27T07:09:39.421Z,75.00
2023-02-27T07:12:06.276Z,10.10
2023-02-27T07:14:32.785Z,9.30
2023-02-27T07:17:03.323Z,17.10
2023-02-27T07:19:30.457Z,10.60
2023-02-27T07:21:57.045Z,19.70
2023-02-27T07:24:23.695Z,13.50
2023-02-27T07:26:50.211Z,17.70
2023-02-27T07:29:16.751Z,28.30
2023-02-27T07:31:43.407Z,17.30
2023-02-27T07:34:11.846Z,17.60
2023-02-27T07:36:39.064Z,17.70
2023-02-27T07:39:06.191Z,13.00
2023-02-27T07:41:32.751Z,1.00
2023-02-27T07:43:59.712Z,13.50
2023-02-27T07:46:27.565Z,39.10
2023-02-27T07:48:54.897Z,21.30
2023-02-27T07:51:21.624Z,16.00
2023-02-27T07:53:48.164Z,12.50
2023-02-27T07:56:14.705Z,24.30
2023-02-27T07:58:41.241Z,14.10
2023-02-27T08:01:07.947Z,16.20
2023-02-27T08:03:34.576Z,19.90
2023-02-27T08:06:02.406Z,22.90
2023-02-27T08:08:29.653Z,1.00
2023-02-27T08:10:56.304Z,58.70
2023-02-27T08:13:42.263Z,20.90
2023-02-27T08:16:09.536Z,29.00
2023-02-27T08:18:36.270Z,2.00
2023-02-27T08:21:05.078Z,30.00
2023-02-27T08:23:32.432Z,18.20
2023-02-27T08:25:58.981Z,21.10
2023-02-27T08:28:25.849Z,26.00
2023-02-27T08:30:52.389Z,2.70
2023-02-27T08:33:18.962Z,54.90
2023-02-27T08:35:45.595Z,22.00
2023-02-27T08:38:12.201Z,33.40
2023-02-27T08:40:38.809Z,22.70
2023-02-27T08:43:05.324Z,35.30
2023-02-27T08:45:31.975Z,24.90
2023-02-27T08:47:58.520Z,81.60
2023-02-27T08:50:25.054Z,32.50
2023-02-27T08:52:51.620Z,77.20
2023-02-27T08:55:18.277Z,32.80
2023-02-27T08:57:44.863Z,99.90
2023-02-27T09:00:14.652Z,99.90
2023-02-27T09:02:41.417Z,99.90
2023-02-27T09:05:08.274Z,99.90
2023-02-27T09:07:34.818Z,99.90
2023-02-27T09:10:01.487Z,99.90
2023-02-27T09:12:28.022Z,99.90
2023-02-27T09:14:54.807Z,99.90
2023-02-27T09:17:21.657Z,99.90
2023-02-27T09:19:48.184Z,99.90
2023-02-27T09:22:14.690Z,42.80
2023-02-27T09:24:41.266Z,40.20
2023-02-27T09:27:07.836Z,13.50
2023-02-27T09:29:34.379Z,28.60
2023-02-27T09:32:01.603Z,40.10
2023-02-27T09:34:28.385Z,33.60
2023-02-27T09:36:54.909Z,28.00
2023-02-27T09:39:21.431Z,53.00
2023-02-27T09:42:20.617Z,36.40
2023-02-27T09:44:55.832Z,42.60
2023-02-27T09:47:35.305Z,38.70
2023-02-27T09:50:18.443Z,44.40
2023-02-27T09:52:45.145Z,99.60
2023-02-27T09:55:13.042Z,96.40
2023-02-27T09:57:43.960Z,99.90
2023-02-27T10:00:20.070Z,99.90
2023-02-27T10:02:56.041Z,99.90
2023-02-27T10:05:27.056Z,85.00
2023-02-27T10:08:03.360Z,39.40
2023-02-27T10:10:37.352Z,44.40
2023-02-27T10:13:04.051Z,37.40
2023-02-27T10:15:30.524Z,28.10
2023-02-27T10:17:59.762Z,44.00
2023-02-27T10:20:34.505Z,35.10
2023-02-27T10:23:03.928Z,34.30
2023-02-27T10:25:33.475Z,42.00
2023-02-27T10:28:11.167Z,35.40
2023-02-27T10:30:37.777Z,36.90
2023-02-27T10:33:07.426Z,50.40
2023-02-27T10:35:38.921Z,99.90
2023-02-27T10:38:07.985Z,99.90
2023-02-27T10:40:35.976Z,99.90
2023-02-27T10:43:05.333Z,96.80
2023-02-27T10:45:33.281Z,99.90
2023-02-27T10:48:01.603Z,41.70
2023-02-27T10:50:38.200Z,55.40
2023-02-27T10:53:06.960Z,43.70
2023-02-27T10:55:35.538Z,42.40
2023-02-27T10:58:02.716Z,99.90
2023-02-27T11:00:33.678Z,42.50
2023-02-27T11:03:00.375Z,38.40
2023-02-27T11:05:49.684Z,33.50
2023-02-27T11:08:24.028Z,99.90
2023-02-27T11:11:10.748Z,30.00
2023-02-27T11:13:38.739Z,39.90
2023-02-27T11:16:05.551Z,33.30
2023-02-27T11:18:32.286Z,29.30
2023-02-27T11:21:19.473Z,30.30
2023-02-27T11:24:07.669Z,23.40
2023-02-27T11:26:39.014Z,32.90
2023-02-27T11:29:06.642Z,31.60
2023-02-27T11:31:33.746Z,27.10
2023-02-27T11:34:01.079Z,30.40
2023-02-27T11:36:41.665Z,25.30
2023-02-27T11:39:20.650Z,27.20
2023-02-27T11:41:47.235Z,25.30
2023-02-27T11:44:17.011Z,28.00
2023-02-27T11:46:48.341Z,31.50
2023-02-27T11:49:34.599Z,25.10
2023-02-27T11:52:13.286Z,21.00
2023-02-27T11:54:42.554Z,29.20
2023-02-27T11:57:29.800Z,41.20
2023-02-27T11:59:56.295Z,24.60
2023-02-27T12:02:36.590Z,25.50
2023-02-27T12:05:07.128Z,26.40
2023-02-27T12:07:54.406Z,30.80
2023-02-27T12:10:29.645Z,26.40
2023-02-27T12:13:05.118Z,28.70
2023-02-27T12:15:55.800Z,31.70
2023-02-27T12:18:38.256Z,28.80
2023-02-27T12:21:06.746Z,23.50
2023-02-27T12:23:56.609Z,46.00
2023-02-27T12:26:31.788Z,35.20
2023-02-27T12:29:13.343Z,38.40
2023-02-27T12:31:53.940Z,32.10
2023-02-27T12:34:25.916Z,37.20
2023-02-27T12:36:53.314Z,28.60
2023-02-27T12:39:21.160Z,34.70
2023-02-27T12:41:50.413Z,35.60
2023-02-27T12:44:29.166Z,95.20
2023-02-27T12:47:13.444Z,38.00
2023-02-27T12:49:58.112Z,36.80
2023-02-27T12:52:24.766Z,35.30
2023-02-27T12:54:57.675Z,33.40
2023-02-27T12:57:36.149Z,34.10
2023-02-27T13:00:08.233Z,36.10
2023-02-27T13:02:37.781Z,46.60
2023-02-27T13:05:27.509Z,45.60
2023-02-27T13:08:12.692Z,51.10
2023-02-27T13:10:47.961Z,42.50
2023-02-27T13:13:24.282Z,45.60
2023-02-27T13:16:05.786Z,47.30
2023-02-27T13:18:50.765Z,37.60
2023-02-27T13:21:36.201Z,42.90
2023-02-27T13:24:12.488Z,50.60
2023-02-27T13:26:44.927Z,53.20
2023-02-27T13:29:13.814Z,39.00
2023-02-27T13:31:46.477Z,37.60
2023-02-27T13:34:16.818Z,42.20
2023-02-27T13:36:52.472Z,44.20
2023-02-27T13:39:38.766Z,37.70
2023-02-27T13:42:25.276Z,61.50
2023-02-27T13:44:52.736Z,67.80
2023-02-27T13:47:37.990Z,57.20
2023-02-27T13:50:16.938Z,69.60
2023-02-27T13:52:43.883Z,59.80
2023-02-27T13:55:45.764Z,62.40
2023-02-27T13:58:17.149Z,44.10
2023-02-27T14:00:52.995Z,46.30
2023-02-27T14:03:25.740Z,34.60
2023-02-27T14:05:53.717Z,35.10
2023-02-27T14:08:22.183Z,29.40
2023-02-27T14:10:59.776Z,41.10
2023-02-27T14:13:45.235Z,40.30
2023-02-27T14:16:13.258Z,43.30
2023-02-27T14:18:54.769Z,49.00
2023-02-27T14:21:57.045Z,59.60
2023-02-27T14:24:41.337Z,52.20
2023-02-27T14:27:29.561Z,38.50
2023-02-27T14:29:57.299Z,51.40
2023-02-27T14:32:25.248Z,52.10
2023-02-27T14:34:53.991Z,60.50
2023-02-27T14:37:23.400Z,51.10
2023-02-27T14:43:04.970Z,45.00
2023-02-27T14:45:31.807Z,35.50
2023-02-27T14:47:58.659Z,56.60
2023-02-27T14:50:27.151Z,54.70
2023-02-27T14:52:53.821Z,60.00
2023-02-27T14:55:22.273Z,45.50
2023-02-27T14:58:07.165Z,49.60
2023-02-27T15:00:36.384Z,57.60
2023-02-27T15:03:11.791Z,35.90
2023-02-27T15:05:38.498Z,44.10
2023-02-27T15:08:05.193Z,71.70
2023-02-27T15:10:33.162Z,57.00
2023-02-27T15:13:00.712Z,55.00
2023-02-27T15:15:27.460Z,68.10
2023-02-27T15:17:54.910Z,58.90
2023-02-27T15:20:21.477Z,69.10
2023-02-27T15:22:48.094Z,79.60
2023-02-27T15:25:31.552Z,61.20
2023-02-27T15:28:01.596Z,87.30
2023-02-27T15:30:28.304Z,60.70
2023-02-27T15:32:55.921Z,63.10
2023-02-27T15:35:24.318Z,36.50
2023-02-27T15:37:54.126Z,52.80
2023-02-27T15:40:22.310Z,55.10
2023-02-27T15:42:48.943Z,52.70
2023-02-27T15:45:17.594Z,62.90
2023-02-27T15:47:44.148Z,54.20
2023-02-27T15:50:22.853Z,34.00
2023-02-27T15:52:50.640Z,45.50
2023-02-27T15:55:24.824Z,51.40
2023-02-27T15:58:02.349Z,48.50
2023-02-27T16:00:30.757Z,58.50
2023-02-27T16:02:57.764Z,49.50
2023-02-27T16:05:35.357Z,50.90
2023-02-27T16:08:02.861Z,53.90
2023-02-27T16:10:30.696Z,52.40
2023-02-27T16:12:57.283Z,45.10
2023-02-27T16:15:31.272Z,42.30
2023-02-27T16:18:07.815Z,34.90
2023-02-27T16:20:37.989Z,37.80
2023-02-27T16:23:07.598Z,38.90
2023-02-27T16:25:34.156Z,38.10
2023-02-27T16:28:00.923Z,29.30
2023-02-27T16:30:28.584Z,37.80
2023-02-27T16:36:04.476Z,38.10
2023-02-27T16:38:31.069Z,39.70
2023-02-27T16:40:57.837Z,30.80
2023-02-27T16:43:24.433Z,32.10
2023-02-27T16:45:51.970Z,29.90
2023-02-27T16:48:18.749Z,36.50
2023-02-27T16:50:45.288Z,39.30
2023-02-27T16:53:11.889Z,31.80
2023-02-27T16:55:39.704Z,41.80
2023-02-27T16:58:06.740Z,34.40
2023-02-27T17:00:36.314Z,40.30
2023-02-27T17:03:02.842Z,25.20
2023-02-27T17:05:29.474Z,35.20
2023-02-27T17:07:56.171Z,34.30
2023-02-27T17:10:24.542Z,35.70
2023-02-27T17:12:51.383Z,42.80
2023-02-27T17:15:18.165Z,34.40
2023-02-27T17:17:45.284Z,37.90
2023-02-27T17:20:12.697Z,32.00
2023-02-27T17:22:40.732Z,34.40
2023-02-27T17:25:07.791Z,34.30
2023-02-27T17:27:34.643Z,36.20
2023-02-27T17:30:01.526Z,37.30
2023-02-27T17:32:28.136Z,35.20
2023-02-27T17:34:55.403Z,41.90
2023-02-27T17:37:22.226Z,42.10
2023-02-27T17:39:48.945Z,37.60
2023-02-27T17:42:18.443Z,36.30
2023-02-27T17:44:46.083Z,30.00
2023-02-27T17:47:12.645Z,35.10
2023-02-27T17:49:39.255Z,37.80
2023-02-27T17:52:07.266Z,42.20
2023-02-27T17:54:34.297Z,34.80
2023-02-27T17:57:00.967Z,38.20
2023-02-27T17:59:27.624Z,39.00
2023-02-27T18:01:55.659Z,31.40
2023-02-27T18:04:22.528Z,48.00
2023-02-27T18:06:50.635Z,54.90
2023-02-27T18:09:17.549Z,36.40
2023-02-27T18:11:44.134Z,44.50
2023-02-27T18:14:10.844Z,40.20
2023-02-27T18:16:37.844Z,59.70
2023-02-27T18:19:05.869Z,51.20
2023-02-27T18:21:32.999Z,41.40
2023-02-27T18:23:59.674Z,40.80
2023-02-27T18:26:30.956Z,48.10
2023-02-27T18:29:00.185Z,38.50
2023-02-27T18:31:28.822Z,42.40
2023-02-27T18:33:55.368Z,47.70
2023-02-27T18:36:21.914Z,33.80
2023-02-27T18:38:48.468Z,30.50
2023-02-27T18:41:15.153Z,38.90
2023-02-27T18:43:42.363Z,40.20
2023-02-27T18:46:09.561Z,36.00
2023-02-27T18:48:38.032Z,33.30
2023-02-27T18:51:06.046Z,40.60
2023-02-27T18:53:34.606Z,31.00
2023-02-27T18:56:02.051Z,33.80
2023-02-27T18:58:28.597Z,45.00
2023-02-27T19:01:01.108Z,41.60
2023-02-27T19:03:29.807Z,27.80
2023-02-27T19:05:56.663Z,43.30
2023-02-27T19:08:28.843Z,37.30
2023-02-27T19:10:56.084Z,34.00
2023-02-27T19:13:22.709Z,30.20
2023-02-27T19:15:49.275Z,43.60
2023-02-27T19:18:15.833Z,43.70
2023-02-27T19:20:42.362Z,43.30
2023-02-27T19:23:08.963Z,43.00
2023-02-27T19:25:35.822Z,42.70
2023-02-27T19:28:02.558Z,26.30
2023-02-27T19:30:29.297Z,19.90
2023-02-27T19:32:55.870Z,16.00
2023-02-27T19:35:22.508Z,16.60
2023-02-27T19:37:55.135Z,38.00
2023-02-27T19:40:22.332Z,37.80
2023-02-27T19:42:49.562Z,27.80
2023-02-27T19:45:16.160Z,37.80
2023-02-27T19:47:42.766Z,28.80
2023-02-27T19:50:09.792Z,34.10
2023-02-27T19:52:36.650Z,33.90
2023-02-27T19:55:03.756Z,37.20
2023-02-27T19:57:30.494Z,33.80
2023-02-27T19:59:57.007Z,34.90
2023-02-27T20:02:24.317Z,33.30
2023-02-27T20:04:50.974Z,33.30
2023-02-27T20:07:18.896Z,28.60
2023-02-27T20:09:45.438Z,26.00
2023-02-27T20:12:11.941Z,20.00
2023-02-27T20:14:38.665Z,32.50
2023-02-27T20:17:05.214Z,30.10
2023-02-27T20:19:31.798Z,30.60
2023-02-27T20:21:58.296Z,31.10
2023-02-27T20:24:25.347Z,47.50
2023-02-27T20:26:53.434Z,28.10
2023-02-27T20:29:21.857Z,26.20
2023-02-27T20:31:49.411Z,30.80
2023-02-27T20:34:21.755Z,25.00
2023-02-27T20:36:50.381Z,24.30
2023-02-27T20:39:17.176Z,23.10
2023-02-27T20:41:44.841Z,22.40
2023-02-27T20:44:14.536Z,27.10
2023-02-27T20:46:42.133Z,25.40
2023-02-27T20:49:10.444Z,35.70
2023-02-27T20:51:38.138Z,42.70
2023-02-27T20:54:06.030Z,28.50
2023-02-27T20:56:34.479Z,33.80
2023-02-27T20:59:03.769Z,35.40
2023-02-27T21:01:31.078Z,29.90
2023-02-27T21:03:58.517Z,35.00
2023-02-27T21:06:26.155Z,28.50
2023-02-27T21:08:54.073Z,30.00
2023-02-27T21:11:27.112Z,28.30
2023-02-27T21:13:54.385Z,26.90
2023-02-27T21:16:21.331Z,28.50
2023-02-27T21:18:51.279Z,35.70
2023-02-27T21:21:22.900Z,29.00
2023-02-27T21:23:49.778Z,19.30
2023-02-27T21:26:18.227Z,32.70
2023-02-27T21:28:47.852Z,28.50
2023-02-27T21:31:15.494Z,31.40
2023-02-27T21:33:42.262Z,28.50
2023-02-27T21:36:09.845Z,30.00
2023-02-27T21:38:36.891Z,29.10
2023-02-27T21:41:13.309Z,72.70
2023-02-27T21:43:40.571Z,57.00
2023-02-27T21:46:08.010Z,62.10
2023-02-27T21:48:34.603Z,56.80
2023-02-27T21:51:01.688Z,44.80
2023-02-27T21:53:28.831Z,52.80
2023-02-27T21:55:56.108Z,34.30
2023-02-27T21:58:23.399Z,37.00
2023-02-27T22:00:50.538Z,36.50
2023-02-27T22:03:17.490Z,35.90
2023-02-27T22:05:44.381Z,35.20
2023-02-27T22:08:10.944Z,27.20
2023-02-27T22:10:45.879Z,32.50
2023-02-27T22:13:15.818Z,40.00
2023-02-27T22:15:42.486Z,36.10
2023-02-27T22:18:09.141Z,36.60
2023-02-27T22:20:38.144Z,44.40
2023-02-27T22:23:04.884Z,32.10
2023-02-27T22:25:31.852Z,42.90
2023-02-27T22:27:59.591Z,38.40
2023-02-27T22:30:26.632Z,43.00
2023-02-27T22:32:53.401Z,36.90
2023-02-27T22:35:20.236Z,29.70
2023-02-27T22:37:46.841Z,36.90
2023-02-27T22:40:13.568Z,37.60
2023-02-27T22:42:40.114Z,38.60
2023-02-27T22:45:06.923Z,40.10
2023-02-27T22:47:33.428Z,35.10
2023-02-27T22:50:00.060Z,45.10
2023-02-27T22:52:26.669Z,46.20
2023-02-27T22:54:53.289Z,37.90
2023-02-27T22:57:19.804Z,42.40
2023-02-27T22:59:48.821Z,39.40
2023-02-27T23:02:16.207Z,40.60
2023-02-27T23:04:42.924Z,43.80
2023-02-27T23:07:09.456Z,42.10
2023-02-27T23:09:35.961Z,49.90
2023-02-27T23:12:04.341Z,43.90
2023-02-27T23:14:30.894Z,48.20
2023-02-27T23:16:57.454Z,36.40
2023-02-27T23:19:23.977Z,37.60
2023-02-27T23:21:50.525Z,37.20
2023-02-27T23:24:18.073Z,41.60
2023-02-27T23:26:46.002Z,40.10
2023-02-27T23:29:12.879Z,42.70
2023-02-27T23:31:40.177Z,53.10
2023-02-27T23:34:06.847Z,36.60
2023-02-27T23:36:33.873Z,44.90
2023-02-27T23:39:02.780Z,48.20
2023-02-27T23:41:29.749Z,44.90
2023-02-27T23:43:56.899Z,42.30
2023-02-27T23:46:23.547Z,39.70
2023-02-27T23:48:50.128Z,36.20
2023-02-27T23:51:16.694Z,41.60
2023-02-27T23:53:43.282Z,50.90
2023-02-27T23:56:17.404Z,45.10
2023-02-27T23:58:44.641Z,53.40
